createdAt,value
2018-11-26T00:00:29.781Z,41.60
2018-11-26T00:02:58.012Z,40.67
2018-11-26T00:05:26.240Z,39.97
2018-11-26T00:07:54.468Z,42.00
2018-11-26T00:10:34.246Z,43.63
2018-11-26T00:13:02.489Z,40.47
2018-11-26T00:15:30.730Z,39.27
2018-11-26T00:17:58.936Z,40.37
2018-11-26T00:20:27.168Z,40.17
2018-11-26T00:22:55.437Z,38.65
2018-11-26T00:25:23.729Z,39.07
2018-11-26T00:27:51.972Z,39.60
2018-11-26T00:30:20.229Z,34.27
2018-11-26T00:32:48.477Z,35.73
2018-11-26T00:35:16.733Z,32.40
2018-11-26T00:37:45.048Z,31.73
2018-11-26T00:40:13.360Z,31.07
2018-11-26T00:42:41.601Z,30.77
2018-11-26T00:45:11.562Z,31.55
2018-11-26T00:47:39.788Z,29.65
2018-11-26T00:50:09.274Z,30.77
2018-11-26T00:52:38.176Z,30.27
2018-11-26T00:55:07.805Z,26.97
2018-11-26T00:57:36.187Z,24.37
2018-11-26T01:00:05.674Z,25.50
2018-11-26T01:02:33.894Z,28.50
2018-11-26T01:05:02.160Z,23.13
2018-11-26T01:07:30.379Z,27.50
2018-11-26T01:09:58.621Z,28.53
2018-11-26T01:12:26.833Z,26.43
2018-11-26T01:14:55.051Z,23.80
2018-11-26T01:17:23.279Z,29.50
2018-11-26T01:19:51.532Z,25.30
2018-11-26T01:22:19.732Z,26.00
2018-11-26T01:24:48.580Z,28.93
2018-11-26T01:27:16.785Z,26.07
2018-11-26T01:29:45.033Z,23.37
2018-11-26T01:32:13.253Z,23.40
2018-11-26T01:34:41.881Z,22.93
2018-11-26T01:37:10.102Z,27.03
2018-11-26T01:39:38.356Z,23.20
2018-11-26T01:42:06.653Z,22.73
2018-11-26T01:44:34.897Z,24.07
2018-11-26T01:47:03.133Z,25.25
2018-11-26T01:49:31.389Z,21.23
2018-11-26T01:51:59.597Z,23.50
2018-11-26T01:54:27.812Z,24.47
2018-11-26T01:56:56.131Z,23.97
2018-11-26T01:59:24.350Z,26.33
2018-11-26T02:01:52.553Z,21.30
2018-11-26T02:04:20.807Z,20.87
2018-11-26T02:06:49.038Z,21.70
2018-11-26T02:09:18.001Z,22.25
2018-11-26T02:11:46.223Z,20.97
2018-11-26T02:14:14.541Z,18.67
2018-11-26T02:16:42.751Z,22.17
2018-11-26T02:19:10.949Z,19.43
2018-11-26T02:21:39.153Z,18.93
2018-11-26T02:24:07.419Z,19.13
2018-11-26T02:26:36.129Z,19.50
2018-11-26T02:29:04.384Z,20.17
2018-11-26T02:31:32.615Z,18.63
2018-11-26T02:34:00.861Z,19.10
2018-11-26T02:36:29.090Z,19.43
2018-11-26T02:38:57.285Z,20.13
2018-11-26T02:41:25.538Z,18.50
2018-11-26T02:43:53.784Z,17.20
2018-11-26T02:46:22.003Z,18.90
2018-11-26T02:48:50.265Z,18.80
2018-11-26T02:51:18.516Z,19.70
2018-11-26T02:53:46.792Z,21.48
2018-11-26T02:56:14.996Z,18.37
2018-11-26T02:58:43.262Z,16.93
2018-11-26T03:01:11.519Z,17.17
2018-11-26T03:03:39.752Z,18.07
2018-11-26T03:06:07.957Z,18.37
2018-11-26T03:08:36.200Z,18.37
2018-11-26T03:11:04.580Z,18.00
2018-11-26T03:13:32.776Z,18.33
2018-11-26T03:16:01.024Z,21.20
2018-11-26T03:18:29.876Z,18.93
2018-11-26T03:20:58.119Z,20.27
2018-11-26T03:23:26.344Z,19.23
2018-11-26T03:25:54.694Z,20.17
2018-11-26T03:28:22.905Z,18.87
2018-11-26T03:30:51.161Z,20.47
2018-11-26T03:33:19.393Z,24.45
2018-11-26T03:35:47.639Z,20.60
2018-11-26T03:38:21.161Z,19.50
2018-11-26T03:40:49.437Z,19.70
2018-11-26T03:43:17.677Z,24.00
2018-11-26T03:45:45.935Z,19.93
2018-11-26T03:48:14.207Z,21.70
2018-11-26T03:50:42.440Z,21.07
2018-11-26T03:53:10.752Z,21.60
2018-11-26T03:55:38.991Z,21.53
2018-11-26T03:58:07.220Z,24.57
2018-11-26T04:00:35.429Z,23.37
2018-11-26T04:03:03.650Z,23.63
2018-11-26T04:05:31.842Z,20.15
2018-11-26T04:08:00.097Z,23.77
2018-11-26T04:10:28.314Z,23.83
2018-11-26T04:12:56.540Z,22.57
2018-11-26T04:15:24.748Z,24.63
2018-11-26T04:17:52.986Z,20.62
2018-11-26T04:20:21.212Z,20.43
2018-11-26T04:22:49.565Z,23.40
2018-11-26T04:25:17.778Z,22.53
2018-11-26T04:27:46.042Z,23.37
2018-11-26T04:30:14.302Z,21.13
2018-11-26T04:32:42.560Z,21.73
2018-11-26T04:35:10.801Z,23.10
2018-11-26T04:37:39.024Z,24.93
2018-11-26T04:40:09.110Z,23.73
2018-11-26T04:42:37.525Z,22.17
2018-11-26T04:45:07.272Z,25.52
2018-11-26T04:47:35.482Z,23.23
2018-11-26T04:50:03.825Z,22.23
2018-11-26T04:52:32.296Z,22.90
2018-11-26T04:55:00.561Z,25.17
2018-11-26T04:57:28.778Z,24.40
2018-11-26T04:59:57.013Z,21.93
2018-11-26T05:02:25.234Z,26.53
2018-11-26T05:04:53.527Z,24.20
2018-11-26T05:07:21.796Z,20.50
2018-11-26T05:09:50.289Z,24.37
2018-11-26T05:12:18.529Z,24.47
2018-11-26T05:14:46.771Z,26.93
2018-11-26T05:17:15.037Z,25.37
2018-11-26T05:19:43.282Z,24.07
2018-11-26T05:22:11.478Z,24.47
2018-11-26T05:24:39.699Z,26.50
2018-11-26T05:27:07.908Z,27.03
2018-11-26T05:29:36.738Z,26.00
2018-11-26T05:32:05.965Z,27.40
2018-11-26T05:34:34.197Z,26.57
2018-11-26T05:37:02.460Z,26.33
2018-11-26T05:39:31.257Z,26.77
2018-11-26T05:42:00.425Z,27.77
2018-11-26T05:44:28.648Z,26.27
2018-11-26T05:46:56.912Z,23.93
2018-11-26T05:49:25.491Z,25.37
2018-11-26T05:51:53.788Z,25.00
2018-11-26T05:54:22.049Z,22.60
2018-11-26T05:56:50.250Z,25.27
2018-11-26T05:59:18.457Z,27.50
2018-11-26T06:01:46.755Z,25.53
2018-11-26T06:04:14.964Z,25.83
2018-11-26T06:06:43.217Z,21.53
2018-11-26T06:09:11.678Z,26.00
2018-11-26T06:11:40.424Z,26.47
2018-11-26T06:14:08.638Z,22.20
2018-11-26T06:16:37.311Z,22.10
2018-11-26T06:19:05.774Z,27.00
2018-11-26T06:21:34.021Z,24.10
2018-11-26T06:24:02.259Z,27.00
2018-11-26T06:26:31.460Z,25.70
2018-11-26T06:28:59.682Z,25.70
2018-11-26T06:31:27.940Z,25.20
2018-11-26T06:33:56.177Z,24.10
2018-11-26T06:36:24.395Z,24.30
2018-11-26T06:38:52.673Z,25.20
2018-11-26T06:41:20.904Z,24.73
2018-11-26T06:43:49.166Z,23.23
2018-11-26T06:46:17.401Z,20.20
2018-11-26T06:48:45.620Z,21.07
2018-11-26T06:51:13.872Z,22.43
2018-11-26T06:53:42.100Z,21.80
2018-11-26T06:56:10.354Z,21.00
2018-11-26T06:58:38.569Z,18.43
2018-11-26T07:01:06.873Z,17.97
2018-11-26T07:03:35.097Z,18.57
2018-11-26T07:06:03.324Z,17.30
2018-11-26T07:08:31.577Z,19.37
2018-11-26T07:10:59.801Z,16.93
2018-11-26T07:13:28.029Z,15.30
2018-11-26T07:15:56.254Z,19.20
2018-11-26T07:18:24.492Z,15.40
2018-11-26T07:20:52.708Z,18.53
2018-11-26T07:23:20.924Z,16.97
2018-11-26T07:25:49.186Z,14.43
2018-11-26T07:28:17.384Z,15.80
2018-11-26T07:30:45.687Z,13.50
2018-11-26T07:33:13.917Z,15.00
2018-11-26T07:35:42.196Z,11.90
2018-11-26T07:38:10.457Z,14.00
2018-11-26T07:40:38.702Z,12.37
2018-11-26T07:43:08.549Z,12.63
2018-11-26T07:45:36.788Z,12.17
2018-11-26T07:48:05.700Z,12.17
2018-11-26T07:50:34.709Z,12.47
2018-11-26T07:53:02.985Z,14.87
2018-11-26T07:55:31.190Z,14.43
2018-11-26T07:57:59.409Z,11.67
2018-11-26T08:00:27.728Z,12.37
2018-11-26T08:02:55.972Z,11.53
2018-11-26T08:05:24.492Z,9.83
2018-11-26T08:07:52.728Z,9.63
2018-11-26T08:10:21.799Z,8.70
2018-11-26T08:12:51.045Z,8.50
2018-11-26T08:15:22.444Z,8.90
2018-11-26T08:17:49.626Z,12.23
2018-11-26T08:20:17.908Z,7.57
2018-11-26T08:22:46.271Z,9.20
2018-11-26T08:25:16.820Z,11.40
2018-11-26T08:27:46.011Z,9.57
2018-11-26T08:30:16.132Z,8.13
2018-11-26T08:32:45.582Z,8.73
2018-11-26T08:35:15.671Z,9.27
2018-11-26T08:37:49.376Z,9.17
2018-11-26T08:40:28.221Z,8.17
2018-11-26T08:43:15.453Z,9.80
2018-11-26T08:45:52.280Z,9.60
2018-11-26T08:48:25.976Z,7.27
2018-11-26T08:50:55.026Z,8.23
2018-11-26T08:53:24.304Z,8.10
2018-11-26T08:55:52.533Z,7.63
2018-11-26T08:58:20.777Z,6.37
2018-11-26T09:00:54.493Z,9.43
2018-11-26T09:03:22.729Z,6.90
2018-11-26T09:06:00.525Z,10.40
2018-11-26T09:08:29.809Z,7.10
2018-11-26T09:10:58.229Z,9.60
2018-11-26T09:13:26.442Z,8.67
2018-11-26T09:15:54.648Z,11.57
2018-11-26T09:18:22.857Z,5.70
2018-11-26T09:20:51.050Z,9.97
2018-11-26T09:23:19.902Z,9.93
2018-11-26T09:25:48.143Z,11.47
2018-11-26T09:28:16.387Z,10.20
2018-11-26T09:30:44.680Z,6.50
2018-11-26T09:33:12.907Z,7.37
2018-11-26T09:35:41.105Z,8.23
2018-11-26T09:38:09.317Z,8.53
2018-11-26T09:40:37.537Z,6.40
2018-11-26T09:43:06.916Z,6.50
2018-11-26T09:45:40.006Z,8.97
2018-11-26T09:48:03.690Z,7.67
2018-11-26T09:50:32.210Z,6.87
2018-11-26T09:53:00.777Z,10.03
2018-11-26T09:55:29.001Z,5.57
2018-11-26T09:57:57.234Z,8.97
2018-11-26T10:00:25.512Z,6.63
2018-11-26T10:02:53.713Z,6.37
2018-11-26T10:05:23.992Z,8.10
2018-11-26T10:07:52.220Z,6.37
2018-11-26T10:10:20.479Z,6.00
2018-11-26T10:12:48.771Z,6.27
2018-11-26T10:15:21.429Z,5.10
2018-11-26T10:17:49.644Z,4.83
2018-11-26T10:20:17.852Z,5.83
2018-11-26T10:22:46.615Z,6.47
2018-11-26T10:25:16.938Z,5.33
2018-11-26T10:27:45.157Z,7.43
2018-11-26T10:30:14.492Z,6.80
2018-11-26T10:32:43.445Z,4.73
2018-11-26T10:35:12.652Z,7.33
2018-11-26T10:37:40.886Z,5.90
2018-11-26T10:40:11.274Z,4.67
2018-11-26T10:42:39.469Z,5.90
2018-11-26T10:45:11.122Z,4.10
2018-11-26T10:47:39.358Z,6.90
2018-11-26T10:50:10.180Z,6.57
2018-11-26T10:52:39.684Z,8.17
2018-11-26T10:55:10.885Z,4.83
2018-11-26T10:57:53.816Z,3.93
2018-11-26T11:00:27.384Z,5.43
2018-11-26T11:02:55.905Z,5.07
2018-11-26T11:05:23.845Z,4.07
2018-11-26T11:07:52.189Z,5.80
2018-11-26T11:10:28.509Z,4.37
2018-11-26T11:12:56.709Z,4.23
2018-11-26T11:15:25.083Z,4.67
2018-11-26T11:17:53.316Z,4.67
2018-11-26T11:20:23.045Z,2.77
2018-11-26T11:22:51.281Z,5.20
2018-11-26T11:25:20.009Z,2.77
2018-11-26T11:27:48.603Z,2.90
2018-11-26T11:30:22.082Z,4.03
2018-11-26T11:32:50.478Z,3.67
2018-11-26T11:35:19.044Z,5.07
2018-11-26T11:37:48.185Z,3.80
2018-11-26T11:40:23.535Z,4.93
2018-11-26T11:42:52.317Z,4.77
2018-11-26T11:45:21.034Z,3.07
2018-11-26T11:47:49.266Z,3.23
2018-11-26T11:50:18.545Z,5.17
2018-11-26T11:52:47.003Z,3.63
2018-11-26T11:55:17.245Z,2.57
2018-11-26T11:57:45.495Z,3.80
2018-11-26T12:00:23.694Z,7.00
2018-11-26T12:02:51.910Z,6.10
2018-11-26T12:05:20.139Z,2.90
2018-11-26T12:07:49.029Z,4.27
2018-11-26T12:10:17.290Z,3.40
2018-11-26T12:12:45.530Z,3.83
2018-11-26T12:15:15.962Z,2.60
2018-11-26T12:17:44.877Z,2.30
2018-11-26T12:20:14.043Z,2.73
2018-11-26T12:22:42.526Z,3.80
2018-11-26T12:25:13.757Z,3.43
2018-11-26T12:27:42.038Z,3.37
2018-11-26T12:30:13.018Z,2.63
2018-11-26T12:32:41.253Z,3.97
2018-11-26T12:35:09.494Z,3.97
2018-11-26T12:37:38.087Z,3.03
2018-11-26T12:40:08.696Z,5.83
2018-11-26T12:42:36.915Z,3.50
2018-11-26T12:45:12.550Z,2.73
2018-11-26T12:47:40.818Z,3.20
2018-11-26T12:50:09.149Z,2.53
2018-11-26T12:52:38.046Z,2.63
2018-11-26T12:55:08.370Z,4.63
2018-11-26T12:57:37.134Z,2.70
2018-11-26T13:00:08.607Z,4.97
2018-11-26T13:02:36.874Z,3.17
2018-11-26T13:05:07.546Z,3.80
2018-11-26T13:07:35.822Z,2.83
2018-11-26T13:10:05.455Z,4.13
2018-11-26T13:12:33.695Z,3.63
2018-11-26T13:15:01.940Z,6.10
2018-11-26T13:17:30.186Z,3.73
2018-11-26T13:19:58.395Z,1.93
2018-11-26T13:22:26.638Z,3.73
2018-11-26T13:24:54.887Z,1.20
2018-11-26T13:27:23.128Z,2.70
2018-11-26T13:29:51.349Z,2.47
2018-11-26T13:32:19.562Z,1.70
2018-11-26T13:34:47.774Z,4.37
2018-11-26T13:37:16.002Z,3.60
2018-11-26T13:39:44.772Z,2.15
2018-11-26T13:42:12.995Z,2.27
2018-11-26T13:44:41.234Z,5.97
2018-11-26T13:47:09.466Z,2.20
2018-11-26T13:49:37.943Z,5.13
2018-11-26T13:52:06.219Z,3.00
2018-11-26T13:54:34.471Z,3.27
2018-11-26T13:57:02.771Z,5.47
2018-11-26T13:59:31.066Z,1.80
2018-11-26T14:01:59.296Z,3.03
2018-11-26T14:04:27.839Z,2.57
2018-11-26T14:06:56.113Z,2.27
2018-11-26T14:09:24.371Z,1.53
2018-11-26T14:11:52.581Z,2.83
2018-11-26T14:14:20.804Z,1.90
2018-11-26T14:16:49.077Z,2.80
2018-11-26T14:19:17.291Z,2.40
2018-11-26T14:21:45.513Z,4.00
2018-11-26T14:24:13.750Z,2.40
2018-11-26T14:26:42.055Z,2.93
2018-11-26T14:29:10.281Z,6.20
2018-11-26T14:31:38.519Z,2.77
2018-11-26T14:34:06.859Z,4.20
2018-11-26T14:36:35.085Z,2.53
2018-11-26T14:39:03.503Z,4.47
2018-11-26T14:41:31.756Z,3.30
2018-11-26T14:44:00.000Z,3.57
2018-11-26T14:46:28.266Z,4.83
2018-11-26T14:48:56.480Z,4.37
2018-11-26T14:51:24.698Z,3.37
2018-11-26T14:53:52.939Z,2.60
2018-11-26T14:56:21.183Z,3.17
2018-11-26T14:58:49.526Z,3.93
2018-11-26T15:01:17.806Z,3.40
2018-11-26T15:03:46.083Z,2.87
2018-11-26T15:06:14.303Z,4.90
2018-11-26T15:08:42.550Z,4.80
2018-11-26T15:11:10.777Z,5.90
2018-11-26T15:13:39.018Z,5.63
2018-11-26T15:16:07.261Z,4.97
2018-11-26T15:18:35.526Z,6.07
2018-11-26T15:21:03.806Z,7.30
2018-11-26T15:23:32.068Z,8.00
2018-11-26T15:26:00.323Z,4.37
2018-11-26T15:28:28.558Z,4.27
2018-11-26T15:30:56.811Z,5.93
2018-11-26T15:33:25.065Z,5.30
2018-11-26T15:35:53.987Z,5.73
2018-11-26T15:38:22.230Z,4.50
2018-11-26T15:40:50.579Z,6.20
2018-11-26T15:43:18.975Z,3.57
2018-11-26T15:45:47.303Z,4.63
2018-11-26T15:48:15.603Z,6.20
2018-11-26T15:50:43.854Z,4.77
2018-11-26T15:53:12.886Z,5.37
2018-11-26T15:55:41.097Z,4.60
2018-11-26T15:58:10.081Z,5.23
2018-11-26T16:00:38.428Z,5.70
2018-11-26T16:03:07.075Z,6.70
2018-11-26T16:05:35.531Z,4.93
2018-11-26T16:08:06.811Z,4.87
2018-11-26T16:10:35.037Z,3.60
2018-11-26T16:13:04.403Z,5.13
2018-11-26T16:15:38.337Z,5.30
2018-11-26T16:18:09.431Z,5.90
2018-11-26T16:20:37.724Z,6.40
2018-11-26T16:23:07.814Z,5.63
2018-11-26T16:25:36.743Z,4.73
2018-11-26T16:28:05.303Z,3.23
2018-11-26T16:30:33.559Z,3.73
2018-11-26T16:33:02.771Z,6.50
2018-11-26T16:35:32.382Z,4.20
2018-11-26T16:38:00.958Z,4.37
2018-11-26T16:40:30.142Z,4.57
2018-11-26T16:42:58.405Z,3.13
2018-11-26T16:45:27.820Z,5.00
2018-11-26T16:47:57.110Z,4.53
2018-11-26T16:50:28.513Z,5.57
2018-11-26T16:52:56.982Z,4.63
2018-11-26T16:55:25.243Z,5.23
2018-11-26T16:57:53.603Z,5.80
2018-11-26T17:00:24.859Z,5.83
2018-11-26T17:02:54.376Z,4.97
2018-11-26T17:05:33.746Z,4.57
2018-11-26T17:08:02.006Z,5.80
2018-11-26T17:10:30.303Z,3.43
2018-11-26T17:12:58.592Z,3.93
2018-11-26T17:15:26.860Z,4.60
2018-11-26T17:17:55.127Z,4.20
2018-11-26T17:20:23.397Z,4.87
2018-11-26T17:22:51.684Z,4.53
2018-11-26T17:25:19.957Z,4.13
2018-11-26T17:27:48.207Z,4.57
2018-11-26T17:30:23.286Z,5.40
2018-11-26T17:32:55.814Z,5.87
2018-11-26T17:35:24.073Z,5.40
2018-11-26T17:37:52.365Z,5.40
2018-11-26T17:40:21.816Z,3.58
2018-11-26T17:42:51.051Z,6.22
2018-11-26T17:45:19.990Z,5.70
2018-11-26T17:47:49.454Z,5.40
2018-11-26T17:50:19.260Z,7.83
2018-11-26T17:52:48.078Z,6.92
2018-11-26T17:55:16.313Z,7.10
2018-11-26T17:57:44.600Z,8.10
2018-11-26T18:00:20.471Z,8.87
2018-11-26T18:02:48.763Z,8.13
2018-11-26T18:05:18.577Z,6.43
2018-11-26T18:07:51.578Z,6.13
2018-11-26T18:10:19.849Z,7.40
2018-11-26T18:12:48.562Z,6.93
2018-11-26T18:15:16.935Z,7.20
2018-11-26T18:17:46.083Z,7.83
2018-11-26T18:20:16.584Z,6.13
2018-11-26T18:22:46.053Z,6.37
2018-11-26T18:25:14.953Z,5.47
2018-11-26T18:27:46.266Z,5.10
2018-11-26T18:30:16.403Z,6.13
2018-11-26T18:32:44.751Z,5.77
2018-11-26T18:35:13.152Z,5.90
2018-11-26T18:37:41.811Z,6.53
2018-11-26T18:40:17.507Z,5.80
2018-11-26T18:42:45.845Z,5.30
2018-11-26T18:45:15.619Z,6.07
2018-11-26T18:47:44.511Z,6.00
2018-11-26T18:50:19.688Z,5.20
2018-11-26T18:52:48.924Z,5.77
2018-11-26T18:55:17.560Z,6.97
2018-11-26T18:57:45.980Z,7.20
2018-11-26T19:00:20.640Z,6.70
2018-11-26T19:02:49.127Z,6.37
2018-11-26T19:05:18.308Z,8.67
2018-11-26T19:07:47.439Z,7.00
2018-11-26T19:10:19.638Z,6.40
2018-11-26T19:12:53.015Z,7.60
2018-11-26T19:15:29.780Z,7.33
2018-11-26T19:18:14.645Z,10.20
2018-11-26T19:20:43.082Z,9.73
2018-11-26T19:23:12.435Z,12.20
2018-11-26T19:25:40.847Z,13.10
2018-11-26T19:28:10.181Z,11.45
2018-11-26T19:30:38.629Z,13.97
2018-11-26T19:33:08.247Z,12.63
2018-11-26T19:35:36.812Z,10.53
2018-11-26T19:38:13.798Z,10.87
2018-11-26T19:40:43.057Z,8.77
2018-11-26T19:43:11.531Z,7.23
2018-11-26T19:45:40.483Z,8.10
2018-11-26T19:48:10.886Z,7.80
2018-11-26T19:50:40.004Z,8.73
2018-11-26T19:53:10.585Z,7.87
2018-11-26T19:55:40.698Z,7.53
2018-11-26T19:58:10.890Z,7.67
2018-11-26T20:00:39.970Z,8.50
2018-11-26T20:03:21.722Z,8.67
2018-11-26T20:06:24.207Z,6.60
2018-11-26T20:08:58.811Z,7.37
2018-11-26T20:11:32.943Z,7.70
2018-11-26T20:13:55.689Z,6.87
2018-11-26T20:16:26.690Z,5.30
2018-11-26T20:18:55.369Z,6.13
2018-11-26T20:21:28.408Z,8.53
2018-11-26T20:23:56.865Z,8.47
2018-11-26T20:26:26.607Z,7.87
2018-11-26T20:28:57.113Z,8.23
2018-11-26T20:31:23.649Z,7.07
2018-11-26T20:33:52.233Z,6.53
2018-11-26T20:36:20.718Z,6.87
2018-11-26T20:38:49.040Z,6.87
2018-11-26T20:41:17.394Z,7.43
2018-11-26T20:43:45.824Z,8.53
2018-11-26T20:46:14.229Z,7.70
2018-11-26T20:48:42.612Z,8.77
2018-11-26T20:51:10.960Z,10.93
2018-11-26T20:53:40.796Z,9.93
2018-11-26T20:56:11.474Z,8.10
2018-11-26T20:58:39.870Z,10.13
2018-11-26T21:01:08.254Z,8.10
2018-11-26T21:03:36.679Z,6.00
2018-11-26T21:06:05.992Z,8.37
2018-11-26T21:08:34.347Z,8.23
2018-11-26T21:11:04.654Z,7.97
2018-11-26T21:13:32.954Z,6.97
2018-11-26T21:16:01.405Z,9.03
2018-11-26T21:18:30.283Z,8.88
2018-11-26T21:20:59.185Z,7.67
2018-11-26T21:23:30.484Z,10.15
2018-11-26T21:26:00.772Z,8.80
2018-11-26T21:28:29.123Z,7.75
2018-11-26T21:30:57.695Z,7.47
2018-11-26T21:33:26.084Z,6.80
2018-11-26T21:35:54.393Z,7.77
2018-11-26T21:38:22.670Z,7.40
2018-11-26T21:40:50.966Z,7.13
2018-11-26T21:43:19.291Z,7.77
2018-11-26T21:45:57.084Z,8.20
2018-11-26T21:48:25.395Z,5.20
2018-11-26T21:50:53.736Z,6.17
2018-11-26T21:53:22.166Z,7.03
2018-11-26T21:55:50.899Z,7.45
2018-11-26T21:58:20.018Z,7.87
2018-11-26T22:00:49.706Z,6.67
2018-11-26T22:03:18.008Z,5.60
2018-11-26T22:05:46.292Z,5.90
2018-11-26T22:08:14.579Z,6.90
2018-11-26T22:10:43.667Z,5.73
2018-11-26T22:13:17.361Z,5.43
2018-11-26T22:15:45.660Z,7.93
2018-11-26T22:18:13.931Z,7.67
2018-11-26T22:20:42.207Z,5.25
2018-11-26T22:23:10.487Z,7.23
2018-11-26T22:25:39.494Z,4.62
2018-11-26T22:28:09.407Z,7.40
2018-11-26T22:30:39.185Z,6.27
2018-11-26T22:33:07.538Z,7.63
2018-11-26T22:35:35.811Z,4.97
2018-11-26T22:38:04.078Z,5.50
2018-11-26T22:40:32.341Z,6.20
2018-11-26T22:43:01.313Z,6.60
2018-11-26T22:45:33.901Z,4.97
2018-11-26T22:48:12.139Z,4.80
2018-11-26T22:50:42.597Z,6.63
2018-11-26T22:53:10.891Z,7.93
2018-11-26T22:55:39.235Z,5.40
2018-11-26T22:58:09.000Z,5.20
2018-11-26T23:00:42.870Z,5.40
2018-11-26T23:03:12.930Z,5.70
2018-11-26T23:05:41.191Z,5.37
2018-11-26T23:08:09.447Z,5.07
2018-11-26T23:10:38.616Z,5.50
2018-11-26T23:13:07.920Z,5.57
2018-11-26T23:15:36.150Z,6.30
2018-11-26T23:18:04.732Z,9.63
2018-11-26T23:20:33.055Z,7.80
2018-11-26T23:23:01.372Z,7.87
2018-11-26T23:25:29.655Z,5.37
2018-11-26T23:27:57.886Z,5.33
2018-11-26T23:30:28.199Z,5.00
2018-11-26T23:32:59.431Z,5.67
2018-11-26T23:35:27.705Z,6.30
2018-11-26T23:37:55.981Z,5.97
2018-11-26T23:40:24.245Z,6.43
2018-11-26T23:42:52.567Z,6.87
2018-11-26T23:45:22.795Z,5.20
2018-11-26T23:47:51.041Z,7.12
2018-11-26T23:50:19.278Z,6.23
2018-11-26T23:52:47.732Z,5.95
2018-11-26T23:55:20.179Z,9.83
2018-11-26T23:57:48.473Z,12.20
